createdAt,value
2023-03-06T00:00:25.071Z,4.70
2023-03-06T00:02:52.659Z,4.70
2023-03-06T00:05:20.297Z,4.70
2023-03-06T00:07:48.079Z,4.70
2023-03-06T00:10:18.550Z,4.70
2023-03-06T00:12:46.233Z,4.70
2023-03-06T00:15:14.306Z,4.70
2023-03-06T00:17:41.774Z,4.68
2023-03-06T00:20:11.814Z,4.60
2023-03-06T00:22:39.700Z,4.60
2023-03-06T00:25:08.057Z,4.60
2023-03-06T00:27:35.280Z,4.60
2023-03-06T00:30:02.325Z,4.60
2023-03-06T00:32:29.938Z,4.60
2023-03-06T00:34:57.989Z,4.60
2023-03-06T00:37:25.923Z,4.60
2023-03-06T00:39:53.238Z,4.60
2023-03-06T00:42:22.333Z,4.50
2023-03-06T00:44:52.090Z,4.50
2023-03-06T00:47:19.348Z,4.50
2023-03-06T00:49:46.374Z,4.50
2023-03-06T00:52:13.842Z,4.50
2023-03-06T00:54:41.319Z,4.50
2023-03-06T00:57:09.053Z,4.50
2023-03-06T00:59:36.160Z,4.50
2023-03-06T01:02:03.743Z,4.48
2023-03-06T01:04:32.417Z,4.44
2023-03-06T01:06:59.700Z,4.48
2023-03-06T01:09:29.903Z,4.40
2023-03-06T01:11:57.375Z,4.40
2023-03-06T01:14:24.727Z,4.40
2023-03-06T01:16:51.803Z,4.40
2023-03-06T01:19:19.024Z,4.40
2023-03-06T01:21:46.914Z,4.40
2023-03-06T01:24:14.147Z,4.40
2023-03-06T01:26:43.852Z,4.30
2023-03-06T01:29:10.989Z,4.30
2023-03-06T01:31:38.319Z,4.30
2023-03-06T01:34:05.672Z,4.30
2023-03-06T01:36:32.863Z,4.28
2023-03-06T01:38:59.976Z,4.24
2023-03-06T01:41:27.170Z,4.20
2023-03-06T01:43:57.383Z,4.20
2023-03-06T01:46:30.879Z,4.20
2023-03-06T01:49:19.182Z,4.20
2023-03-06T01:52:00.926Z,4.20
2023-03-06T01:54:49.576Z,4.20
2023-03-06T01:57:23.115Z,4.20
2023-03-06T01:59:56.261Z,4.20
2023-03-06T02:02:24.495Z,4.20
2023-03-06T02:04:51.623Z,4.20
2023-03-06T02:07:20.270Z,4.20
2023-03-06T02:09:47.426Z,4.14
2023-03-06T02:12:19.602Z,4.10
2023-03-06T02:14:49.939Z,4.10
2023-03-06T02:17:19.903Z,4.10
2023-03-06T02:20:03.490Z,4.10
2023-03-06T02:22:39.371Z,4.10
2023-03-06T02:25:41.295Z,4.10
2023-03-06T02:28:13.913Z,4.10
2023-03-06T02:30:45.796Z,4.10
2023-03-06T02:33:18.948Z,4.06
2023-03-06T02:36:00.619Z,4.00
2023-03-06T02:38:32.769Z,3.94
2023-03-06T02:41:02.121Z,4.00
2023-03-06T02:43:33.462Z,4.00
2023-03-06T02:46:00.555Z,4.00
2023-03-06T02:48:28.019Z,3.98
2023-03-06T02:50:55.066Z,3.94
2023-03-06T02:53:22.219Z,3.90
2023-03-06T02:55:50.251Z,3.90
2023-03-06T02:58:21.451Z,3.88
2023-03-06T03:00:49.600Z,3.80
2023-03-06T03:03:20.029Z,3.80
2023-03-06T03:05:47.401Z,3.80
2023-03-06T03:08:24.158Z,3.80
2023-03-06T03:10:53.717Z,3.74
2023-03-06T03:13:20.852Z,3.70
2023-03-06T03:16:02.180Z,3.70
2023-03-06T03:18:29.858Z,3.70
2023-03-06T03:20:59.774Z,3.70
2023-03-06T03:23:29.379Z,3.60
2023-03-06T03:26:10.720Z,3.60
2023-03-06T03:28:40.053Z,3.58
2023-03-06T03:31:10.030Z,3.52
2023-03-06T03:33:41.171Z,3.50
2023-03-06T03:36:11.777Z,3.50
2023-03-06T03:38:44.030Z,3.42
2023-03-06T03:41:14.370Z,3.40
2023-03-06T03:43:47.963Z,3.40
2023-03-06T03:46:15.546Z,3.36
2023-03-06T03:48:43.172Z,3.30
2023-03-06T03:51:16.533Z,3.28
2023-03-06T03:53:49.408Z,3.20
2023-03-06T03:56:19.563Z,3.20
2023-03-06T03:58:54.194Z,3.20
2023-03-06T04:01:21.954Z,3.20
2023-03-06T04:03:54.344Z,3.10
2023-03-06T04:06:24.338Z,3.10
2023-03-06T04:08:52.206Z,3.10
2023-03-06T04:11:19.488Z,3.00
2023-03-06T04:13:47.115Z,3.00
2023-03-06T04:16:17.454Z,3.00
2023-03-06T04:18:44.720Z,2.96
2023-03-06T04:21:11.914Z,2.92
2023-03-06T04:23:42.474Z,2.90
2023-03-06T04:26:12.351Z,2.90
2023-03-06T04:28:39.645Z,2.92
2023-03-06T04:31:11.216Z,2.98
2023-03-06T04:33:38.350Z,3.00
2023-03-06T04:36:06.542Z,3.00
2023-03-06T04:38:36.856Z,3.00
2023-03-06T04:41:04.708Z,3.00
2023-03-06T04:43:31.857Z,2.96
2023-03-06T04:46:00.215Z,3.00
2023-03-06T04:48:27.785Z,3.00
2023-03-06T04:50:54.954Z,3.00
2023-03-06T04:53:22.199Z,3.00
2023-03-06T04:55:49.279Z,3.00
2023-03-06T04:58:16.602Z,3.00
2023-03-06T05:00:44.007Z,3.00
2023-03-06T05:03:14.549Z,2.90
2023-03-06T05:05:42.072Z,2.92
2023-03-06T05:08:13.217Z,2.90
2023-03-06T05:10:40.439Z,2.90
2023-03-06T05:13:07.519Z,2.90
2023-03-06T05:15:34.630Z,2.90
2023-03-06T05:18:01.878Z,2.90
2023-03-06T05:20:29.137Z,2.90
2023-03-06T05:22:56.383Z,2.82
2023-03-06T05:25:23.452Z,2.80
2023-03-06T05:27:50.580Z,2.80
2023-03-06T05:30:22.565Z,2.70
2023-03-06T05:32:54.087Z,2.70
2023-03-06T05:35:23.850Z,2.60
2023-03-06T05:37:51.160Z,2.60
2023-03-06T05:40:26.500Z,2.50
2023-03-06T05:43:04.113Z,2.50
2023-03-06T05:45:37.532Z,2.50
2023-03-06T05:48:07.643Z,2.44
2023-03-06T05:50:35.088Z,2.40
2023-03-06T05:53:05.939Z,2.40
2023-03-06T05:55:33.455Z,2.40
2023-03-06T05:58:02.955Z,2.44
2023-03-06T06:00:32.432Z,2.50
2023-03-06T06:03:03.514Z,2.50
2023-03-06T06:05:32.849Z,2.50
2023-03-06T06:08:02.700Z,2.50
2023-03-06T06:10:33.901Z,2.60
2023-03-06T06:13:04.610Z,2.60
2023-03-06T06:15:31.954Z,2.60
2023-03-06T06:17:59.218Z,2.70
2023-03-06T06:20:28.656Z,2.70
2023-03-06T06:22:55.876Z,2.78
2023-03-06T06:25:25.373Z,2.80
2023-03-06T06:27:58.325Z,2.84
2023-03-06T06:30:25.706Z,2.90
2023-03-06T06:32:55.828Z,3.00
2023-03-06T06:35:23.341Z,3.10
2023-03-06T06:37:53.508Z,3.20
2023-03-06T06:40:22.939Z,3.30
2023-03-06T06:42:50.261Z,3.40
2023-03-06T06:45:19.559Z,3.50
2023-03-06T06:47:50.219Z,3.60
2023-03-06T06:50:17.411Z,3.70
2023-03-06T06:52:44.415Z,3.80
2023-03-06T06:55:14.583Z,3.90
2023-03-06T06:57:46.250Z,4.00
2023-03-06T07:00:19.460Z,4.10
2023-03-06T07:02:49.338Z,4.20
2023-03-06T07:05:16.685Z,4.24
2023-03-06T07:07:45.051Z,4.30
2023-03-06T07:10:15.881Z,4.40
2023-03-06T07:12:43.500Z,4.54
2023-03-06T07:15:16.383Z,4.64
2023-03-06T07:17:50.162Z,4.74
2023-03-06T07:20:20.516Z,4.80
2023-03-06T07:22:53.015Z,4.90
2023-03-06T07:25:22.900Z,4.90
2023-03-06T07:27:59.400Z,5.00
2023-03-06T07:30:35.528Z,5.10
2023-03-06T07:33:16.093Z,5.20
2023-03-06T07:35:49.390Z,5.30
2023-03-06T07:38:23.439Z,5.40
2023-03-06T07:40:57.482Z,5.56
2023-03-06T07:43:27.222Z,5.66
2023-03-06T07:46:05.285Z,5.80
2023-03-06T07:48:33.297Z,5.88
2023-03-06T07:51:05.803Z,6.00
2023-03-06T07:53:37.377Z,6.08
2023-03-06T07:56:20.055Z,6.20
2023-03-06T07:58:48.154Z,6.30
2023-03-06T08:01:20.801Z,6.40
2023-03-06T08:03:53.901Z,6.48
2023-03-06T08:06:24.099Z,6.60
2023-03-06T08:08:57.843Z,6.74
2023-03-06T08:11:27.690Z,6.86
2023-03-06T08:14:02.010Z,7.00
2023-03-06T08:16:32.900Z,7.00
2023-03-06T08:19:03.170Z,7.02
2023-03-06T08:21:33.516Z,7.00
2023-03-06T08:24:03.677Z,6.90
2023-03-06T08:26:32.335Z,6.80
2023-03-06T08:29:09.262Z,6.68
2023-03-06T08:31:44.657Z,6.74
2023-03-06T08:34:18.461Z,6.80
2023-03-06T08:36:46.003Z,6.90
2023-03-06T08:39:15.784Z,7.00
2023-03-06T08:41:46.103Z,7.00
2023-03-06T08:44:16.506Z,7.10
2023-03-06T08:46:43.706Z,7.20
2023-03-06T08:49:14.042Z,7.30
2023-03-06T08:51:44.365Z,7.40
2023-03-06T08:54:13.306Z,7.44
2023-03-06T08:56:41.041Z,7.50
2023-03-06T08:59:14.286Z,7.40
2023-03-06T09:01:46.983Z,7.40
2023-03-06T09:04:17.312Z,7.38
2023-03-06T09:06:45.486Z,7.30
2023-03-06T09:09:13.628Z,7.32
2023-03-06T09:11:43.368Z,7.40
2023-03-06T09:14:10.727Z,7.50
2023-03-06T09:16:38.111Z,7.60
2023-03-06T09:19:05.503Z,7.70
2023-03-06T09:21:35.913Z,7.90
2023-03-06T09:24:06.716Z,8.00
2023-03-06T09:26:45.453Z,8.20
2023-03-06T09:29:13.235Z,8.32
2023-03-06T09:31:43.603Z,8.50
2023-03-06T09:34:13.965Z,8.60
2023-03-06T09:36:55.339Z,8.70
2023-03-06T09:39:27.457Z,8.80
2023-03-06T09:41:57.309Z,8.90
2023-03-06T09:44:34.485Z,9.06
2023-03-06T09:47:28.661Z,9.20
2023-03-06T09:50:20.796Z,9.48
2023-03-06T09:53:02.959Z,9.60
2023-03-06T09:55:39.231Z,9.76
2023-03-06T09:58:16.147Z,9.90
2023-03-06T10:01:01.426Z,10.20
2023-03-06T10:03:28.557Z,10.30
2023-03-06T10:06:03.442Z,10.38
2023-03-06T10:08:47.223Z,10.42
2023-03-06T10:11:25.001Z,10.50
2023-03-06T10:13:59.145Z,10.62
2023-03-06T10:16:31.516Z,11.00
2023-03-06T10:19:03.642Z,10.90
2023-03-06T10:21:45.923Z,10.90
2023-03-06T10:24:18.974Z,10.80
2023-03-06T10:26:54.934Z,10.70
2023-03-06T10:29:56.413Z,10.56
2023-03-06T10:32:48.357Z,10.68
2023-03-06T10:35:22.089Z,10.60
2023-03-06T10:37:52.366Z,10.60
2023-03-06T10:40:28.724Z,10.50
2023-03-06T10:43:09.502Z,10.50
2023-03-06T10:45:49.817Z,10.46
2023-03-06T10:48:24.004Z,10.40
2023-03-06T10:50:53.209Z,10.40
2023-03-06T10:53:29.279Z,10.40
2023-03-06T10:56:04.767Z,10.36
2023-03-06T10:58:35.341Z,10.32
2023-03-06T11:01:05.448Z,10.30
2023-03-06T11:03:41.558Z,10.40
2023-03-06T11:06:35.428Z,10.40
2023-03-06T11:09:23.782Z,10.40
2023-03-06T11:12:11.842Z,10.46
2023-03-06T11:14:43.497Z,10.58
2023-03-06T11:17:28.526Z,10.60
2023-03-06T11:20:22.584Z,10.70
2023-03-06T11:23:28.469Z,10.82
2023-03-06T11:26:08.431Z,11.04
2023-03-06T11:29:24.880Z,11.20
2023-03-06T11:31:59.636Z,11.50
2023-03-06T11:34:50.178Z,11.70
2023-03-06T11:37:44.585Z,11.84
2023-03-06T11:40:11.562Z,12.00
2023-03-06T11:42:46.319Z,12.04
2023-03-06T11:45:33.028Z,12.00
2023-03-06T11:48:42.499Z,12.08
2023-03-06T11:51:21.561Z,12.20
2023-03-06T11:53:49.327Z,12.20
2023-03-06T11:56:18.877Z,12.20
2023-03-06T11:59:03.709Z,12.20
2023-03-06T12:01:40.124Z,12.20
2023-03-06T12:04:32.237Z,12.20
2023-03-06T12:07:36.002Z,12.20
2023-03-06T12:10:18.122Z,12.20
2023-03-06T12:13:06.537Z,12.20
2023-03-06T12:16:07.473Z,12.20
2023-03-06T12:19:34.281Z,12.20
2023-03-06T12:22:32.475Z,12.20
2023-03-06T12:25:31.791Z,12.10
2023-03-06T12:28:03.723Z,12.00
2023-03-06T12:30:49.509Z,12.00
2023-03-06T12:33:40.723Z,11.78
2023-03-06T12:36:33.635Z,11.50
2023-03-06T12:39:09.109Z,11.40
2023-03-06T12:41:54.418Z,11.40
2023-03-06T12:45:05.174Z,11.40
2023-03-06T12:47:39.079Z,11.42
2023-03-06T12:50:42.033Z,11.40
2023-03-06T12:53:19.354Z,11.50
2023-03-06T12:55:49.022Z,11.50
2023-03-06T12:58:31.366Z,11.50
2023-03-06T13:01:09.102Z,11.60
2023-03-06T13:04:04.999Z,11.60
2023-03-06T13:07:07.183Z,11.54
2023-03-06T13:10:02.971Z,11.60
2023-03-06T13:12:50.736Z,11.50
2023-03-06T13:15:41.650Z,11.40
2023-03-06T13:18:27.109Z,11.30
2023-03-06T13:20:56.303Z,11.30
2023-03-06T13:23:43.955Z,11.20
2023-03-06T13:26:28.817Z,11.20
2023-03-06T13:29:06.382Z,11.20
2023-03-06T13:31:33.693Z,11.30
2023-03-06T13:34:06.116Z,11.30
2023-03-06T13:36:37.121Z,11.16
2023-03-06T13:39:10.241Z,11.00
2023-03-06T13:41:54.694Z,10.90
2023-03-06T13:44:24.921Z,10.88
2023-03-06T13:47:06.719Z,10.80
2023-03-06T13:49:35.302Z,10.80
2023-03-06T13:52:19.764Z,10.80
2023-03-06T13:54:58.986Z,10.80
2023-03-06T13:57:44.256Z,10.90
2023-03-06T14:00:40.321Z,10.80
2023-03-06T14:03:18.384Z,10.80
2023-03-06T14:05:50.774Z,10.76
2023-03-06T14:08:20.978Z,10.80
2023-03-06T14:10:59.492Z,10.80
2023-03-06T14:13:46.657Z,10.80
2023-03-06T14:16:40.479Z,10.86
2023-03-06T14:19:19.459Z,10.80
2023-03-06T14:21:55.846Z,10.80
2023-03-06T14:24:34.002Z,10.70
2023-03-06T14:27:01.443Z,10.70
2023-03-06T14:29:29.948Z,10.60
2023-03-06T14:31:59.842Z,10.50
2023-03-06T14:34:29.723Z,10.40
2023-03-06T14:37:10.587Z,10.30
2023-03-06T14:39:40.759Z,10.30
2023-03-06T14:42:19.521Z,10.20
2023-03-06T14:44:48.966Z,10.14
2023-03-06T14:47:30.049Z,10.10
2023-03-06T14:50:32.489Z,10.10
2023-03-06T14:53:18.419Z,10.10
2023-03-06T14:56:00.545Z,10.10
2023-03-06T14:58:52.724Z,10.10
2023-03-06T15:01:29.954Z,10.10
2023-03-06T15:04:03.846Z,10.10
2023-03-06T15:06:37.784Z,10.00
2023-03-06T15:09:24.433Z,10.04
2023-03-06T15:12:05.118Z,10.10
2023-03-06T15:14:47.707Z,10.10
2023-03-06T15:17:17.879Z,10.00
2023-03-06T15:19:47.665Z,9.90
2023-03-06T15:22:31.157Z,9.86
2023-03-06T15:25:19.895Z,9.78
2023-03-06T15:27:52.098Z,9.70
2023-03-06T15:30:39.546Z,9.70
2023-03-06T15:33:22.975Z,9.60
2023-03-06T15:35:57.467Z,9.52
2023-03-06T15:38:30.505Z,9.50
2023-03-06T15:41:00.181Z,9.46
2023-03-06T15:43:29.058Z,9.34
2023-03-06T15:45:59.908Z,9.30
2023-03-06T15:48:27.602Z,9.30
2023-03-06T15:50:54.686Z,9.16
2023-03-06T15:53:21.896Z,9.00
2023-03-06T15:55:50.389Z,8.90
2023-03-06T15:58:24.954Z,8.84
2023-03-06T16:00:52.206Z,8.80
2023-03-06T16:03:19.322Z,8.70
2023-03-06T16:05:46.343Z,8.60
2023-03-06T16:08:15.124Z,8.60
2023-03-06T16:10:44.676Z,8.50
2023-03-06T16:13:17.552Z,8.40
2023-03-06T16:15:50.283Z,8.38
2023-03-06T16:18:17.963Z,8.30
2023-03-06T16:20:45.520Z,8.30
2023-03-06T16:23:17.383Z,8.20
2023-03-06T16:25:51.909Z,8.20
2023-03-06T16:28:21.553Z,8.10
2023-03-06T16:30:51.689Z,8.10
2023-03-06T16:33:24.606Z,8.10
2023-03-06T16:35:54.221Z,8.04
2023-03-06T16:38:29.182Z,8.00
2023-03-06T16:40:58.987Z,8.00
2023-03-06T16:43:26.141Z,7.90
2023-03-06T16:45:55.642Z,7.90
2023-03-06T16:48:22.997Z,7.80
2023-03-06T16:50:50.832Z,7.74
2023-03-06T16:53:18.424Z,7.70
2023-03-06T16:55:51.499Z,7.70
2023-03-06T16:58:18.673Z,7.60
2023-03-06T17:00:46.014Z,7.60
2023-03-06T17:03:17.957Z,7.52
2023-03-06T17:05:46.106Z,7.50
2023-03-06T17:08:16.720Z,7.50
2023-03-06T17:10:50.096Z,7.50
2023-03-06T17:13:17.589Z,7.40
2023-03-06T17:16:01.818Z,7.40
2023-03-06T17:18:32.342Z,7.40
2023-03-06T17:21:02.806Z,7.40
2023-03-06T17:23:33.238Z,7.32
2023-03-06T17:26:18.875Z,7.30
2023-03-06T17:28:50.065Z,7.30
2023-03-06T17:31:26.901Z,7.20
2023-03-06T17:34:02.641Z,7.20
2023-03-06T17:36:34.974Z,7.10
2023-03-06T17:39:04.505Z,7.00
2023-03-06T17:41:38.088Z,7.00
2023-03-06T17:44:10.875Z,6.90
2023-03-06T17:46:41.193Z,6.88
2023-03-06T17:49:12.061Z,6.90
2023-03-06T17:51:41.928Z,6.82
2023-03-06T17:54:09.278Z,6.80
2023-03-06T17:56:39.220Z,6.80
2023-03-06T17:59:10.246Z,6.80
2023-03-06T18:01:41.143Z,6.80
2023-03-06T18:04:12.398Z,6.74
2023-03-06T18:06:48.066Z,6.70
2023-03-06T18:09:15.810Z,6.70
2023-03-06T18:11:42.978Z,6.70
2023-03-06T18:14:11.557Z,6.60
2023-03-06T18:16:38.782Z,6.60
2023-03-06T18:19:06.679Z,6.50
2023-03-06T18:21:34.545Z,6.50
2023-03-06T18:24:05.538Z,6.50
2023-03-06T18:26:33.064Z,6.40
2023-03-06T18:29:03.940Z,6.40
2023-03-06T18:31:37.359Z,6.40
2023-03-06T18:34:08.350Z,6.40
2023-03-06T18:36:37.458Z,6.40
2023-03-06T18:39:08.896Z,6.40
2023-03-06T18:41:38.055Z,6.38
2023-03-06T18:44:06.173Z,6.32
2023-03-06T18:46:38.711Z,6.30
2023-03-06T18:49:06.672Z,6.30
2023-03-06T18:51:34.464Z,6.30
2023-03-06T18:54:03.971Z,6.30
2023-03-06T18:56:32.600Z,6.30
2023-03-06T18:59:05.597Z,6.30
2023-03-06T19:01:33.746Z,6.30
2023-03-06T19:04:06.164Z,6.30
2023-03-06T19:06:34.293Z,6.30
2023-03-06T19:09:02.392Z,6.26
2023-03-06T19:11:31.318Z,6.30
2023-03-06T19:13:59.471Z,6.30
2023-03-06T19:16:29.832Z,6.20
2023-03-06T19:18:58.012Z,6.20
2023-03-06T19:21:28.313Z,6.20
2023-03-06T19:23:56.407Z,6.20
2023-03-06T19:26:28.410Z,6.20
2023-03-06T19:28:56.286Z,6.18
2023-03-06T19:31:26.868Z,6.20
2023-03-06T19:33:58.213Z,6.20
2023-03-06T19:36:33.573Z,6.20
2023-03-06T19:39:03.837Z,6.20
2023-03-06T19:41:34.268Z,6.20
2023-03-06T19:44:03.474Z,6.16
2023-03-06T19:46:31.986Z,6.10
2023-03-06T19:49:01.996Z,6.10
2023-03-06T19:51:30.683Z,6.10
2023-03-06T19:53:58.463Z,6.10
2023-03-06T19:56:30.201Z,6.10
2023-03-06T19:58:58.041Z,6.04
2023-03-06T20:01:27.303Z,6.00
2023-03-06T20:03:59.642Z,6.00
2023-03-06T20:06:34.020Z,6.00
2023-03-06T20:09:04.087Z,6.00
2023-03-06T20:11:38.297Z,6.00
2023-03-06T20:14:09.020Z,6.00
2023-03-06T20:16:37.317Z,6.00
2023-03-06T20:19:07.284Z,6.00
2023-03-06T20:21:37.759Z,6.00
2023-03-06T20:24:14.771Z,5.98
2023-03-06T20:26:44.421Z,5.90
2023-03-06T20:29:15.634Z,5.90
2023-03-06T20:31:43.183Z,5.90
2023-03-06T20:34:11.088Z,5.90
2023-03-06T20:36:40.722Z,5.90
2023-03-06T20:39:13.454Z,5.90
2023-03-06T20:41:42.126Z,5.90
2023-03-06T20:44:13.963Z,5.90
2023-03-06T20:46:47.123Z,5.84
2023-03-06T20:49:18.091Z,5.80
2023-03-06T20:51:50.837Z,5.80
2023-03-06T20:54:20.407Z,5.80
2023-03-06T20:56:51.265Z,5.80
2023-03-06T20:59:18.533Z,5.80
2023-03-06T21:01:48.267Z,5.80
2023-03-06T21:04:16.878Z,5.80
2023-03-06T21:06:47.731Z,5.80
2023-03-06T21:09:18.006Z,5.80
2023-03-06T21:11:48.205Z,5.80
2023-03-06T21:14:18.934Z,5.80
2023-03-06T21:16:46.253Z,5.78
2023-03-06T21:19:14.626Z,5.78
2023-03-06T21:21:44.882Z,5.80
2023-03-06T21:24:14.821Z,5.80
2023-03-06T21:26:44.178Z,5.78
2023-03-06T21:29:12.441Z,5.80
2023-03-06T21:31:40.713Z,5.76
2023-03-06T21:34:11.819Z,5.80
2023-03-06T21:36:39.295Z,5.80
2023-03-06T21:39:06.697Z,5.78
2023-03-06T21:41:41.832Z,5.76
2023-03-06T21:44:08.972Z,5.74
2023-03-06T21:46:39.105Z,5.72
2023-03-06T21:49:06.558Z,5.70
2023-03-06T21:51:34.268Z,5.70
2023-03-06T21:54:03.020Z,5.70
2023-03-06T21:56:30.301Z,5.70
2023-03-06T21:58:58.399Z,5.70
2023-03-06T22:01:28.977Z,5.70
2023-03-06T22:03:57.503Z,5.70
2023-03-06T22:06:27.427Z,5.70
2023-03-06T22:08:56.122Z,5.70
2023-03-06T22:11:25.339Z,5.70
2023-03-06T22:13:55.947Z,5.70
2023-03-06T22:16:23.068Z,5.70
2023-03-06T22:18:51.591Z,5.70
2023-03-06T22:21:21.274Z,5.70
2023-03-06T22:23:57.674Z,5.70
2023-03-06T22:26:26.359Z,5.70
2023-03-06T22:28:53.604Z,5.70
2023-03-06T22:31:25.818Z,5.70
2023-03-06T22:33:54.661Z,5.70
2023-03-06T22:36:22.835Z,5.70
2023-03-06T22:38:55.309Z,5.70
2023-03-06T22:41:22.679Z,5.70
2023-03-06T22:43:49.645Z,5.70
2023-03-06T22:46:18.014Z,5.70
2023-03-06T22:48:45.444Z,5.70
2023-03-06T22:51:15.269Z,5.70
2023-03-06T22:53:42.838Z,5.70
2023-03-06T22:56:15.877Z,5.70
2023-03-06T22:58:44.909Z,5.70
2023-03-06T23:01:16.104Z,5.70
2023-03-06T23:03:48.612Z,5.70
2023-03-06T23:06:21.905Z,5.70
2023-03-06T23:08:54.681Z,5.70
2023-03-06T23:11:22.122Z,5.70
2023-03-06T23:14:08.080Z,5.68
2023-03-06T23:16:53.801Z,5.64
2023-03-06T23:19:39.311Z,5.60
2023-03-06T23:22:24.745Z,5.60
2023-03-06T23:25:10.466Z,5.60
2023-03-06T23:27:37.819Z,5.60
2023-03-06T23:30:06.004Z,5.58
2023-03-06T23:32:33.912Z,5.54
2023-03-06T23:35:01.116Z,5.50
2023-03-06T23:37:28.055Z,5.50
2023-03-06T23:39:55.202Z,5.50
2023-03-06T23:42:22.867Z,5.50
2023-03-06T23:44:49.808Z,5.50
2023-03-06T23:47:17.374Z,5.50
2023-03-06T23:49:44.506Z,5.48
2023-03-06T23:52:11.591Z,5.40
2023-03-06T23:54:38.612Z,5.40
2023-03-06T23:57:05.767Z,5.40
2023-03-06T23:59:32.705Z,5.40
